createdAt,value
2023-04-19T00:02:37.598Z,99.90
2023-04-19T00:07:30.082Z,99.90
2023-04-19T00:12:22.184Z,99.90
2023-04-19T00:17:14.309Z,99.90
2023-04-19T00:22:06.380Z,99.90
2023-04-19T00:26:59.729Z,99.90
2023-04-19T00:31:53.122Z,99.90
2023-04-19T00:36:45.167Z,99.90
2023-04-19T00:41:38.284Z,99.90
2023-04-19T00:46:30.780Z,99.90
2023-04-19T00:51:25.046Z,99.90
2023-04-19T00:56:17.770Z,99.90
2023-04-19T01:01:10.006Z,99.90
2023-04-19T01:13:03.492Z,99.90
2023-04-19T01:17:56.501Z,99.90
2023-04-19T01:22:49.016Z,99.90
2023-04-19T01:27:41.390Z,99.90
2023-04-19T01:32:33.640Z,99.90
2023-04-19T01:37:28.627Z,99.90
2023-04-19T01:42:20.742Z,99.90
2023-04-19T01:47:13.080Z,99.90
2023-04-19T01:52:06.695Z,99.90
2023-04-19T01:56:58.710Z,99.90
2023-04-19T02:01:51.404Z,99.90
2023-04-19T02:06:43.388Z,99.90
2023-04-19T02:11:35.495Z,99.90
2023-04-19T02:16:27.615Z,99.90
2023-04-19T02:21:19.756Z,99.90
2023-04-19T02:26:13.143Z,99.90
2023-04-19T02:31:08.484Z,99.90
2023-04-19T02:36:00.563Z,99.90
2023-04-19T02:40:52.602Z,99.90
2023-04-19T02:45:44.704Z,99.90
2023-04-19T02:50:41.423Z,99.90
2023-04-19T02:55:34.068Z,99.90
2023-04-19T03:00:32.108Z,99.90
2023-04-19T03:05:33.348Z,99.90
2023-04-19T03:10:26.209Z,99.90
2023-04-19T03:15:20.241Z,99.90
2023-04-19T03:20:14.812Z,99.90
2023-04-19T03:25:07.230Z,99.90
2023-04-19T03:30:00.592Z,99.90
2023-04-19T03:34:54.712Z,99.90
2023-04-19T03:39:46.881Z,99.90
2023-04-19T03:44:44.994Z,99.90
2023-04-19T03:49:37.367Z,99.90
2023-04-19T03:54:31.500Z,99.90
2023-04-19T03:59:24.553Z,99.90
2023-04-19T04:04:17.450Z,99.90
2023-04-19T04:09:11.183Z,99.90
2023-04-19T04:14:04.585Z,99.90
2023-04-19T04:19:00.724Z,99.90
2023-04-19T04:23:55.404Z,99.90
2023-04-19T04:28:57.163Z,99.90
2023-04-19T04:33:51.029Z,99.90
2023-04-19T04:38:46.785Z,99.90
2023-04-19T04:43:39.781Z,99.90
2023-04-19T04:48:31.967Z,99.90
2023-04-19T04:53:27.095Z,99.90
2023-04-19T04:58:20.443Z,99.90
2023-04-19T05:03:33.995Z,99.90
2023-04-19T05:08:30.202Z,99.90
2023-04-19T05:13:34.350Z,99.90
2023-04-19T05:18:27.175Z,99.90
2023-04-19T05:23:20.520Z,99.90
2023-04-19T05:28:13.988Z,99.90
2023-04-19T05:33:17.087Z,99.90
2023-04-19T05:38:09.517Z,99.90
2023-04-19T05:43:01.807Z,99.90
2023-04-19T05:47:54.325Z,99.90
2023-04-19T05:53:22.166Z,99.90
2023-04-19T05:58:16.193Z,99.90
2023-04-19T06:03:08.583Z,99.90
2023-04-19T06:08:02.708Z,99.90
2023-04-19T06:12:55.338Z,99.90
2023-04-19T06:17:47.717Z,99.90
2023-04-19T06:22:45.102Z,99.90
2023-04-19T06:27:37.399Z,99.90
2023-04-19T06:32:29.488Z,95.80
2023-04-19T06:37:21.641Z,91.00
2023-04-19T06:42:13.844Z,91.20
2023-04-19T06:47:06.066Z,88.60
2023-04-19T06:51:59.917Z,87.60
2023-04-19T06:56:52.070Z,67.00
2023-04-19T07:01:44.719Z,53.10
2023-04-19T07:06:37.768Z,47.80
2023-04-19T07:11:30.188Z,45.10
2023-04-19T07:16:22.514Z,41.50
2023-04-19T07:21:15.161Z,42.40
2023-04-19T07:26:08.028Z,44.70
2023-04-19T07:31:01.186Z,42.00
2023-04-19T07:35:53.510Z,41.70
2023-04-19T07:40:46.039Z,41.20
2023-04-19T07:45:38.666Z,42.80
2023-04-19T07:50:30.779Z,40.20
2023-04-19T07:55:23.357Z,39.90
2023-04-19T08:00:16.858Z,40.30
2023-04-19T08:05:09.676Z,39.20
2023-04-19T08:10:01.995Z,39.70
2023-04-19T08:15:04.687Z,39.00
2023-04-19T08:19:59.838Z,39.90
2023-04-19T08:24:52.963Z,39.80
2023-04-19T08:29:45.994Z,39.10
2023-04-19T08:34:39.870Z,38.50
2023-04-19T08:39:34.013Z,39.80
2023-04-19T08:44:35.963Z,40.30
2023-04-19T08:49:29.451Z,39.20
2023-04-19T08:54:22.495Z,39.30
2023-04-19T08:59:20.495Z,40.20
2023-04-19T09:09:37.231Z,45.50
2023-04-19T09:14:33.127Z,48.60
2023-04-19T09:19:25.687Z,48.00
2023-04-19T09:24:17.892Z,45.50
2023-04-19T09:29:13.748Z,47.80
2023-04-19T09:34:17.246Z,46.80
2023-04-19T09:39:09.382Z,44.40
2023-04-19T09:44:50.275Z,47.80
2023-04-19T09:49:37.589Z,46.20
2023-04-19T09:54:37.584Z,49.20
2023-04-19T09:59:29.797Z,46.10
2023-04-19T10:04:37.767Z,46.70
2023-04-19T10:09:45.859Z,48.50
2023-04-19T10:14:45.057Z,46.00
2023-04-19T10:19:38.321Z,45.80
2023-04-19T10:24:30.492Z,46.60
2023-04-19T10:29:54.829Z,50.30
2023-04-19T10:34:47.230Z,52.40
2023-04-19T10:39:41.323Z,51.60
2023-04-19T10:44:33.435Z,49.10
2023-04-19T10:49:28.212Z,51.10
2023-04-19T10:54:38.620Z,50.60
2023-04-19T10:59:35.362Z,55.80
2023-04-19T11:04:30.647Z,57.00
2023-04-19T11:09:31.511Z,52.30
2023-04-19T11:14:25.636Z,46.10
2023-04-19T11:19:18.559Z,50.80
2023-04-19T11:24:11.603Z,53.40
2023-04-19T11:29:04.747Z,56.60
2023-04-19T11:34:00.560Z,59.60
2023-04-19T11:38:53.573Z,61.30
2023-04-19T11:43:47.013Z,61.70
2023-04-19T11:48:53.480Z,60.70
2023-04-19T11:53:47.210Z,62.30
2023-04-19T11:58:43.162Z,63.20
2023-04-19T12:03:48.420Z,64.90
2023-04-19T12:08:47.468Z,64.40
2023-04-19T12:13:44.598Z,62.50
2023-04-19T12:19:17.541Z,63.00
2023-04-19T12:24:10.516Z,62.80
2023-04-19T12:29:03.876Z,60.90
2023-04-19T12:33:56.009Z,62.30
2023-04-19T12:38:48.083Z,63.40
2023-04-19T12:43:40.311Z,64.70
2023-04-19T12:48:34.343Z,64.50
2023-04-19T12:53:26.548Z,61.90
2023-04-19T12:58:20.989Z,62.40
2023-04-19T13:03:13.367Z,63.20
2023-04-19T13:08:06.473Z,65.30
2023-04-19T13:12:59.314Z,63.80
2023-04-19T13:17:54.568Z,62.80
2023-04-19T13:22:46.954Z,62.30
2023-04-19T13:27:39.025Z,61.20
2023-04-19T13:32:31.063Z,62.70
2023-04-19T13:37:23.096Z,60.50
2023-04-19T13:42:15.284Z,63.00
2023-04-19T13:47:07.597Z,64.30
2023-04-19T13:51:59.752Z,66.30
2023-04-19T13:56:52.452Z,66.10
2023-04-19T14:01:44.647Z,71.30
2023-04-19T14:06:36.668Z,77.20
2023-04-19T14:11:29.072Z,79.00
2023-04-19T14:16:21.387Z,84.60
2023-04-19T14:21:13.582Z,91.10
2023-04-19T14:26:05.645Z,97.80
2023-04-19T14:30:57.657Z,99.90
2023-04-19T14:35:49.876Z,99.90
2023-04-19T14:40:42.219Z,99.90
2023-04-19T14:45:34.458Z,99.90
2023-04-19T14:50:26.789Z,99.90
2023-04-19T14:55:18.870Z,99.90
2023-04-19T15:00:11.516Z,99.90
2023-04-19T15:05:03.995Z,99.90
2023-04-19T15:09:56.196Z,99.90
2023-04-19T15:14:48.238Z,99.90
2023-04-19T15:19:40.479Z,99.90
2023-04-19T15:24:34.981Z,99.90
2023-04-19T15:36:36.122Z,99.90
2023-04-19T15:41:38.880Z,99.90
2023-04-19T15:46:31.272Z,99.90
2023-04-19T15:51:23.435Z,99.90
2023-04-19T15:56:15.983Z,99.90
2023-04-19T16:01:11.347Z,99.90
2023-04-19T16:06:03.575Z,99.90
2023-04-19T16:10:55.671Z,99.90
2023-04-19T16:15:47.865Z,99.90
2023-04-19T16:20:40.750Z,99.90
2023-04-19T16:25:33.333Z,99.90
2023-04-19T16:30:26.977Z,99.90
2023-04-19T16:40:57.533Z,99.90
2023-04-19T16:45:49.900Z,99.90
2023-04-19T16:50:43.287Z,99.90
2023-04-19T16:55:36.238Z,99.90
2023-04-19T17:00:29.965Z,99.90
2023-04-19T17:05:22.175Z,99.90
2023-04-19T17:10:14.408Z,99.90
2023-04-19T17:15:06.891Z,99.90
2023-04-19T17:20:00.227Z,99.90
2023-04-19T17:24:54.130Z,99.90
2023-04-19T17:29:46.360Z,99.90
2023-04-19T17:34:40.041Z,99.90
2023-04-19T17:39:32.164Z,99.90
2023-04-19T17:44:24.415Z,99.90
2023-04-19T17:49:19.066Z,99.90
2023-04-19T17:54:11.548Z,99.90
2023-04-19T17:59:04.147Z,99.90
2023-04-19T18:03:56.681Z,99.90
2023-04-19T18:08:48.959Z,99.90
2023-04-19T18:13:42.500Z,99.90
2023-04-19T18:18:34.693Z,99.90
2023-04-19T18:23:26.876Z,99.90
2023-04-19T18:28:18.868Z,99.90
2023-04-19T18:33:11.484Z,99.90
2023-04-19T18:38:04.028Z,99.90
2023-04-19T18:42:56.303Z,99.90
2023-04-19T18:47:49.769Z,99.90
2023-04-19T18:52:43.074Z,99.90
2023-04-19T18:57:36.457Z,99.90
2023-04-19T19:02:29.197Z,99.90
2023-04-19T19:07:34.858Z,99.90
2023-04-19T19:12:28.167Z,99.90
2023-04-19T19:17:20.269Z,99.90
2023-04-19T19:22:25.053Z,99.90
2023-04-19T19:27:19.412Z,99.90
2023-04-19T19:32:11.472Z,99.90
2023-04-19T19:37:04.135Z,99.90
2023-04-19T19:42:06.073Z,99.90
2023-04-19T19:46:58.736Z,99.90
2023-04-19T19:51:58.211Z,99.90
2023-04-19T20:01:46.611Z,99.90
2023-04-19T20:07:22.458Z,99.90
2023-04-19T20:11:50.767Z,99.90
2023-04-19T20:16:43.008Z,99.90
2023-04-19T20:21:38.192Z,99.90
2023-04-19T20:26:30.318Z,99.90
2023-04-19T20:31:23.963Z,99.90
2023-04-19T20:36:16.527Z,99.90
2023-04-19T20:41:08.752Z,99.90
2023-04-19T20:46:01.237Z,99.90
2023-04-19T20:50:53.329Z,99.90
2023-04-19T20:55:45.336Z,99.90
2023-04-19T21:00:37.475Z,99.90
2023-04-19T21:05:29.665Z,99.90
2023-04-19T21:10:24.915Z,99.90
2023-04-19T21:15:17.409Z,99.90
2023-04-19T21:20:15.362Z,99.90
2023-04-19T21:25:08.482Z,99.90
2023-04-19T21:30:01.101Z,99.90
2023-04-19T21:34:53.213Z,99.90
2023-04-19T21:39:45.489Z,99.90
2023-04-19T21:44:37.772Z,99.90
2023-04-19T21:49:29.895Z,99.90
2023-04-19T21:54:30.994Z,99.90
2023-04-19T21:59:25.394Z,99.90
2023-04-19T22:04:18.677Z,99.90
2023-04-19T22:09:13.504Z,99.90
2023-04-19T22:14:07.947Z,99.90
2023-04-19T22:19:00.217Z,99.90
2023-04-19T22:23:52.911Z,99.90
2023-04-19T22:28:45.609Z,99.90
2023-04-19T22:33:40.843Z,99.90
2023-04-19T22:38:35.688Z,99.90
2023-04-19T22:43:27.830Z,99.90
2023-04-19T22:48:19.854Z,99.90
2023-04-19T22:53:12.960Z,99.90
2023-04-19T22:58:05.392Z,99.90
2023-04-19T23:03:00.378Z,99.90
2023-04-19T23:07:57.386Z,99.90
2023-04-19T23:12:49.668Z,99.90
2023-04-19T23:17:42.013Z,99.90
2023-04-19T23:22:34.106Z,99.90
2023-04-19T23:27:26.579Z,99.90
2023-04-19T23:32:18.734Z,99.90
2023-04-19T23:37:12.338Z,99.90
2023-04-19T23:42:04.466Z,99.90
2023-04-19T23:46:56.650Z,99.90
2023-04-19T23:51:52.838Z,99.90
2023-04-19T23:56:45.504Z,99.90
